sensor_id;sensor_type;location;lat;lon;timestamp;pressure;altitude;pressure_sealevel;temperature;humidity
55066;BME280;40964;42.114;24.220;2022-11-20T00:01:14;97270.16;;;11.07;100.00
55066;BME280;40964;42.114;24.220;2022-11-20T00:03:40;97285.13;;;11.18;100.00
55066;BME280;40964;42.114;24.220;2022-11-20T00:06:09;97269.34;;;11.18;100.00
55066;BME280;40964;42.114;24.220;2022-11-20T00:08:35;97298.06;;;11.20;100.00
55066;BME280;40964;42.114;24.220;2022-11-20T00:11:11;97294.75;;;11.24;100.00
55066;BME280;40964;42.114;24.220;2022-11-20T00:13:37;97297.56;;;11.23;100.00
55066;BME280;40964;42.114;24.220;2022-11-20T00:16:05;97287.41;;;11.26;100.00
55066;BME280;40964;42.114;24.220;2022-11-20T00:18:32;97279.59;;;11.31;100.00
55066;BME280;40964;42.114;24.220;2022-11-20T00:21:13;97275.94;;;11.32;100.00
55066;BME280;40964;42.114;24.220;2022-11-20T00:23:38;97280.19;;;11.33;100.00
55066;BME280;40964;42.114;24.220;2022-11-20T00:26:06;97264.25;;;11.28;100.00
55066;BME280;40964;42.114;24.220;2022-11-20T00:28:32;97287.84;;;11.35;100.00
55066;BME280;40964;42.114;24.220;2022-11-20T00:31:05;97276.16;;;11.31;100.00
55066;BME280;40964;42.114;24.220;2022-11-20T00:33:31;97250.88;;;11.30;100.00
55066;BME280;40964;42.114;24.220;2022-11-20T00:36:04;97270.22;;;11.35;100.00
55066;BME280;40964;42.114;24.220;2022-11-20T00:38:34;97267.00;;;11.33;100.00
55066;BME280;40964;42.114;24.220;2022-11-20T00:41:01;97269.84;;;11.32;100.00
55066;BME280;40964;42.114;24.220;2022-11-20T00:43:27;97258.88;;;11.35;100.00
55066;BME280;40964;42.114;24.220;2022-11-20T00:45:58;97248.00;;;11.31;100.00
55066;BME280;40964;42.114;24.220;2022-11-20T00:48:24;97241.81;;;11.37;100.00
55066;BME280;40964;42.114;24.220;2022-11-20T00:50:49;97245.94;;;11.33;100.00
55066;BME280;40964;42.114;24.220;2022-11-20T00:53:15;97251.09;;;11.28;100.00
55066;BME280;40964;42.114;24.220;2022-11-20T00:55:40;97277.56;;;11.22;100.00
55066;BME280;40964;42.114;24.220;2022-11-20T00:58:06;97255.75;;;11.09;100.00
55066;BME280;40964;42.114;24.220;2022-11-20T01:00:31;97242.91;;;11.13;100.00
55066;BME280;40964;42.114;24.220;2022-11-20T01:02:57;97242.91;;;11.13;100.00
55066;BME280;40964;42.114;24.220;2022-11-20T01:05:22;97231.56;;;11.13;100.00
55066;BME280;40964;42.114;24.220;2022-11-20T01:07:47;97209.84;;;11.17;100.00
55066;BME280;40964;42.114;24.220;2022-11-20T01:10:13;97238.00;;;11.17;100.00
55066;BME280;40964;42.114;24.220;2022-11-20T01:12:38;97217.53;;;11.07;100.00
55066;BME280;40964;42.114;24.220;2022-11-20T01:15:04;97230.22;;;11.10;100.00
55066;BME280;40964;42.114;24.220;2022-11-20T01:17:31;97191.84;;;10.97;100.00
55066;BME280;40964;42.114;24.220;2022-11-20T01:19:56;97215.22;;;11.11;100.00
55066;BME280;40964;42.114;24.220;2022-11-20T01:22:22;97208.69;;;11.13;100.00
55066;BME280;40964;42.114;24.220;2022-11-20T01:24:47;97208.69;;;11.13;100.00
55066;BME280;40964;42.114;24.220;2022-11-20T01:27:13;97200.84;;;11.01;100.00
55066;BME280;40964;42.114;24.220;2022-11-20T01:29:38;97209.50;;;11.14;100.00
55066;BME280;40964;42.114;24.220;2022-11-20T01:32:04;97190.84;;;11.15;100.00
55066;BME280;40964;42.114;24.220;2022-11-20T01:34:30;97197.91;;;11.26;100.00
55066;BME280;40964;42.114;24.220;2022-11-20T01:36:55;97202.25;;;11.21;100.00
55066;BME280;40964;42.114;24.220;2022-11-20T01:39:23;97192.22;;;11.18;100.00
55066;BME280;40964;42.114;24.220;2022-11-20T01:41:50;97209.28;;;11.15;100.00
55066;BME280;40964;42.114;24.220;2022-11-20T01:50:21;97182.81;;;11.22;100.00
55066;BME280;40964;42.114;24.220;2022-11-20T01:52:55;97169.44;;;11.23;100.00
55066;BME280;40964;42.114;24.220;2022-11-20T01:55:28;97183.59;;;11.22;100.00
55066;BME280;40964;42.114;24.220;2022-11-20T01:57:55;97146.19;;;11.20;100.00
55066;BME280;40964;42.114;24.220;2022-11-20T02:00:21;97182.25;;;11.20;100.00
55066;BME280;40964;42.114;24.220;2022-11-20T02:03:09;97159.69;;;11.24;100.00
55066;BME280;40964;42.114;24.220;2022-11-20T02:08:11;97178.44;;;11.27;100.00
55066;BME280;40964;42.114;24.220;2022-11-20T02:10:37;97162.66;;;11.27;100.00
55066;BME280;40964;42.114;24.220;2022-11-20T02:13:05;97165.13;;;11.34;100.00
55066;BME280;40964;42.114;24.220;2022-11-20T02:15:49;97166.81;;;11.40;100.00
55066;BME280;40964;42.114;24.220;2022-11-20T02:18:17;97158.28;;;11.33;100.00
55066;BME280;40964;42.114;24.220;2022-11-20T02:20:45;97177.69;;;11.44;100.00
55066;BME280;40964;42.114;24.220;2022-11-20T02:25:41;97157.81;;;11.36;100.00
55066;BME280;40964;42.114;24.220;2022-11-20T02:28:07;97155.47;;;11.40;100.00
55066;BME280;40964;42.114;24.220;2022-11-20T02:30:32;97155.88;;;11.48;100.00
55066;BME280;40964;42.114;24.220;2022-11-20T02:32:58;97155.06;;;11.59;100.00
55066;BME280;40964;42.114;24.220;2022-11-20T02:37:54;97178.50;;;11.61;100.00
55066;BME280;40964;42.114;24.220;2022-11-20T02:40:20;97155.50;;;11.56;100.00
55066;BME280;40964;42.114;24.220;2022-11-20T02:42:47;97151.13;;;11.62;100.00
55066;BME280;40964;42.114;24.220;2022-11-20T02:45:12;97124.25;;;11.60;100.00
55066;BME280;40964;42.114;24.220;2022-11-20T02:47:38;97134.94;;;11.70;100.00
55066;BME280;40964;42.114;24.220;2022-11-20T02:50:04;97135.25;;;11.74;100.00
55066;BME280;40964;42.114;24.220;2022-11-20T02:52:30;97142.50;;;11.66;100.00
55066;BME280;40964;42.114;24.220;2022-11-20T02:54:56;97131.16;;;11.66;100.00
55066;BME280;40964;42.114;24.220;2022-11-20T02:57:22;97107.16;;;11.62;100.00
55066;BME280;40964;42.114;24.220;2022-11-20T02:59:47;97133.75;;;11.61;100.00
55066;BME280;40964;42.114;24.220;2022-11-20T03:02:13;97131.34;;;11.59;100.00
55066;BME280;40964;42.114;24.220;2022-11-20T03:04:38;97126.13;;;11.48;100.00
55066;BME280;40964;42.114;24.220;2022-11-20T03:07:04;97120.88;;;11.48;100.00
55066;BME280;40964;42.114;24.220;2022-11-20T03:09:29;97094.22;;;11.27;100.00
55066;BME280;40964;42.114;24.220;2022-11-20T03:11:55;97120.81;;;11.14;100.00
55066;BME280;40964;42.114;24.220;2022-11-20T03:14:20;97100.16;;;11.06;100.00
55066;BME280;40964;42.114;24.220;2022-11-20T03:16:46;97107.47;;;11.04;100.00
55066;BME280;40964;42.114;24.220;2022-11-20T03:19:12;97129.31;;;11.04;100.00
55066;BME280;40964;42.114;24.220;2022-11-20T03:21:37;97131.06;;;10.99;100.00
55066;BME280;40964;42.114;24.220;2022-11-20T03:24:03;97126.00;;;11.09;100.00
55066;BME280;40964;42.114;24.220;2022-11-20T03:26:29;97133.97;;;11.14;100.00
55066;BME280;40964;42.114;24.220;2022-11-20T03:28:59;97159.41;;;11.08;100.00
55066;BME280;40964;42.114;24.220;2022-11-20T03:31:31;97136.03;;;11.12;100.00
55066;BME280;40964;42.114;24.220;2022-11-20T03:33:57;97147.59;;;11.11;100.00
55066;BME280;40964;42.114;24.220;2022-11-20T03:36:24;97145.06;;;11.16;100.00
55066;BME280;40964;42.114;24.220;2022-11-20T03:38:50;97138.63;;;11.24;100.00
55066;BME280;40964;42.114;24.220;2022-11-20T03:41:18;97147.88;;;11.26;100.00
55066;BME280;40964;42.114;24.220;2022-11-20T03:44:04;97145.56;;;11.30;100.00
55066;BME280;40964;42.114;24.220;2022-11-20T03:46:30;97135.38;;;11.33;100.00
55066;BME280;40964;42.114;24.220;2022-11-20T03:48:56;97151.41;;;11.49;100.00
55066;BME280;40964;42.114;24.220;2022-11-20T03:51:25;97160.22;;;11.54;100.00
55066;BME280;40964;42.114;24.220;2022-11-20T03:53:53;97177.38;;;11.57;100.00
55066;BME280;40964;42.114;24.220;2022-11-20T03:56:22;97171.53;;;11.55;100.00
55066;BME280;40964;42.114;24.220;2022-11-20T03:58:48;97181.59;;;11.58;100.00
55066;BME280;40964;42.114;24.220;2022-11-20T04:01:19;97180.16;;;11.67;100.00
55066;BME280;40964;42.114;24.220;2022-11-20T04:03:45;97201.78;;;11.81;100.00
55066;BME280;40964;42.114;24.220;2022-11-20T04:08:40;97191.72;;;12.11;100.00
55066;BME280;40964;42.114;24.220;2022-11-20T04:11:16;97177.06;;;12.37;100.00
55066;BME280;40964;42.114;24.220;2022-11-20T04:13:45;97168.09;;;12.38;100.00
55066;BME280;40964;42.114;24.220;2022-11-20T04:16:10;97171.00;;;12.37;100.00
55066;BME280;40964;42.114;24.220;2022-11-20T04:18:36;97163.25;;;12.30;100.00
55066;BME280;40964;42.114;24.220;2022-11-20T04:21:03;97151.34;;;12.28;100.00
55066;BME280;40964;42.114;24.220;2022-11-20T04:23:29;97129.03;;;12.13;100.00
55066;BME280;40964;42.114;24.220;2022-11-20T04:26:00;97166.88;;;12.24;100.00
55066;BME280;40964;42.114;24.220;2022-11-20T04:28:26;97174.53;;;12.26;100.00
55066;BME280;40964;42.114;24.220;2022-11-20T04:30:51;97171.66;;;12.27;100.00
55066;BME280;40964;42.114;24.220;2022-11-20T04:33:17;97164.78;;;12.26;100.00
55066;BME280;40964;42.114;24.220;2022-11-20T04:35:44;97170.56;;;12.23;100.00
55066;BME280;40964;42.114;24.220;2022-11-20T04:38:12;97160.47;;;12.20;100.00
55066;BME280;40964;42.114;24.220;2022-11-20T04:40:38;97185.50;;;12.17;100.00
55066;BME280;40964;42.114;24.220;2022-11-20T04:43:03;97170.16;;;12.14;100.00
55066;BME280;40964;42.114;24.220;2022-11-20T04:45:29;97161.84;;;12.23;100.00
55066;BME280;40964;42.114;24.220;2022-11-20T04:47:54;97184.28;;;12.25;100.00
55066;BME280;40964;42.114;24.220;2022-11-20T04:50:20;97162.78;;;12.33;100.00
55066;BME280;40964;42.114;24.220;2022-11-20T04:52:45;97149.09;;;12.36;100.00
55066;BME280;40964;42.114;24.220;2022-11-20T04:55:11;97147.50;;;12.35;100.00
55066;BME280;40964;42.114;24.220;2022-11-20T04:57:36;97140.69;;;12.39;100.00
55066;BME280;40964;42.114;24.220;2022-11-20T05:00:03;97156.50;;;12.39;100.00
55066;BME280;40964;42.114;24.220;2022-11-20T05:02:30;97155.56;;;12.45;100.00
55066;BME280;40964;42.114;24.220;2022-11-20T05:04:56;97148.81;;;12.55;100.00
55066;BME280;40964;42.114;24.220;2022-11-20T05:07:21;97161.75;;;12.56;100.00
55066;BME280;40964;42.114;24.220;2022-11-20T05:09:47;97154.41;;;12.58;99.53
55066;BME280;40964;42.114;24.220;2022-11-20T05:12:12;97145.50;;;12.64;98.46
55066;BME280;40964;42.114;24.220;2022-11-20T05:14:38;97157.59;;;12.60;98.00
55066;BME280;40964;42.114;24.220;2022-11-20T05:17:03;97157.41;;;12.67;97.81
55066;BME280;40964;42.114;24.220;2022-11-20T05:19:29;97154.34;;;12.75;96.46
55066;BME280;40964;42.114;24.220;2022-11-20T05:21:54;97152.63;;;12.86;95.87
55066;BME280;40964;42.114;24.220;2022-11-20T05:24:20;97146.09;;;12.93;95.54
55066;BME280;40964;42.114;24.220;2022-11-20T05:26:45;97147.41;;;12.91;95.68
55066;BME280;40964;42.114;24.220;2022-11-20T05:29:11;97138.69;;;12.90;95.63
55066;BME280;40964;42.114;24.220;2022-11-20T05:31:39;97146.34;;;12.92;95.56
55066;BME280;40964;42.114;24.220;2022-11-20T05:34:05;97162.25;;;12.97;94.89
55066;BME280;40964;42.114;24.220;2022-11-20T05:36:30;97134.81;;;12.98;94.05
55066;BME280;40964;42.114;24.220;2022-11-20T05:38:56;97162.44;;;13.12;93.24
55066;BME280;40964;42.114;24.220;2022-11-20T05:41:22;97147.31;;;13.07;93.45
55066;BME280;40964;42.114;24.220;2022-11-20T05:43:48;97144.94;;;13.06;93.63
55066;BME280;40964;42.114;24.220;2022-11-20T05:46:16;97159.50;;;12.87;94.26
55066;BME280;40964;42.114;24.220;2022-11-20T05:48:42;97164.97;;;12.80;93.89
55066;BME280;40964;42.114;24.220;2022-11-20T05:51:10;97165.50;;;12.82;94.35
55066;BME280;40964;42.114;24.220;2022-11-20T05:53:36;97159.19;;;12.83;93.34
55066;BME280;40964;42.114;24.220;2022-11-20T05:58:32;97147.44;;;13.18;90.69
55066;BME280;40964;42.114;24.220;2022-11-20T06:01:06;97156.19;;;13.45;87.76
55066;BME280;40964;42.114;24.220;2022-11-20T06:03:32;97157.75;;;13.73;86.52
55066;BME280;40964;42.114;24.220;2022-11-20T06:06:01;97161.56;;;13.87;85.39
55066;BME280;40964;42.114;24.220;2022-11-20T06:08:27;97177.44;;;13.92;85.91
55066;BME280;40964;42.114;24.220;2022-11-20T06:10:53;97161.69;;;14.03;84.14
55066;BME280;40964;42.114;24.220;2022-11-20T06:13:19;97183.50;;;14.20;83.86
55066;BME280;40964;42.114;24.220;2022-11-20T06:15:51;97192.50;;;14.24;84.38
55066;BME280;40964;42.114;24.220;2022-11-20T06:18:17;97195.16;;;14.24;83.78
55066;BME280;40964;42.114;24.220;2022-11-20T06:20:43;97203.94;;;14.30;83.45
55066;BME280;40964;42.114;24.220;2022-11-20T06:23:09;97205.22;;;14.27;84.08
55066;BME280;40964;42.114;24.220;2022-11-20T06:25:40;97197.84;;;14.29;83.29
55066;BME280;40964;42.114;24.220;2022-11-20T06:28:06;97216.63;;;14.33;82.97
55066;BME280;40964;42.114;24.220;2022-11-20T06:30:32;97205.00;;;14.34;83.65
55066;BME280;40964;42.114;24.220;2022-11-20T06:32:58;97209.03;;;14.41;83.54
55066;BME280;40964;42.114;24.220;2022-11-20T06:35:23;97199.06;;;14.48;83.68
55066;BME280;40964;42.114;24.220;2022-11-20T06:37:49;97177.94;;;14.59;83.85
55066;BME280;40964;42.114;24.220;2022-11-20T06:40:14;97196.25;;;14.70;83.51
55066;BME280;40964;42.114;24.220;2022-11-20T06:42:39;97194.22;;;14.88;82.35
55066;BME280;40964;42.114;24.220;2022-11-20T06:45:05;97194.03;;;15.10;81.07
55066;BME280;40964;42.114;24.220;2022-11-20T06:47:31;97183.34;;;15.87;71.65
55066;BME280;40964;42.114;24.220;2022-11-20T06:49:56;97172.72;;;16.13;73.27
55066;BME280;40964;42.114;24.220;2022-11-20T06:52:22;97174.53;;;16.33;70.48
55066;BME280;40964;42.114;24.220;2022-11-20T06:54:47;97185.66;;;16.50;72.86
55066;BME280;40964;42.114;24.220;2022-11-20T06:57:13;97193.38;;;16.41;74.25
55066;BME280;40964;42.114;24.220;2022-11-20T06:59:38;97189.19;;;15.95;77.27
55066;BME280;40964;42.114;24.220;2022-11-20T07:02:03;97206.41;;;15.77;80.20
55066;BME280;40964;42.114;24.220;2022-11-20T07:04:29;97218.53;;;15.52;82.15
55066;BME280;40964;42.114;24.220;2022-11-20T07:06:54;97223.81;;;15.47;83.54
55066;BME280;40964;42.114;24.220;2022-11-20T07:09:20;97218.75;;;15.36;85.20
55066;BME280;40964;42.114;24.220;2022-11-20T07:11:45;97218.75;;;15.30;85.86
55066;BME280;40964;42.114;24.220;2022-11-20T07:14:10;97236.75;;;15.28;86.92
55066;BME280;40964;42.114;24.220;2022-11-20T07:16:36;97224.28;;;15.24;86.02
55066;BME280;40964;42.114;24.220;2022-11-20T07:19:01;97216.34;;;15.29;86.61
55066;BME280;40964;42.114;24.220;2022-11-20T07:21:27;97209.19;;;15.24;86.83
55066;BME280;40964;42.114;24.220;2022-11-20T07:23:52;97220.88;;;15.39;86.71
55066;BME280;40964;42.114;24.220;2022-11-20T07:26:18;97204.22;;;15.48;84.28
55066;BME280;40964;42.114;24.220;2022-11-20T07:28:44;97221.72;;;15.59;84.34
55066;BME280;40964;42.114;24.220;2022-11-20T07:31:10;97222.06;;;15.73;83.33
55066;BME280;40964;42.114;24.220;2022-11-20T07:33:37;97215.69;;;15.84;83.93
55066;BME280;40964;42.114;24.220;2022-11-20T07:36:02;97220.19;;;15.89;84.07
55066;BME280;40964;42.114;24.220;2022-11-20T07:38:29;97227.91;;;15.96;84.67
55066;BME280;40964;42.114;24.220;2022-11-20T07:40:56;97201.09;;;15.87;85.97
55066;BME280;40964;42.114;24.220;2022-11-20T07:43:23;97213.84;;;16.00;85.68
55066;BME280;40964;42.114;24.220;2022-11-20T07:45:48;97209.59;;;15.94;84.31
55066;BME280;40964;42.114;24.220;2022-11-20T07:48:13;97205.34;;;15.93;83.95
55066;BME280;40964;42.114;24.220;2022-11-20T07:50:39;97236.66;;;16.06;83.83
55066;BME280;40964;42.114;24.220;2022-11-20T07:53:05;97217.28;;;16.11;83.41
55066;BME280;40964;42.114;24.220;2022-11-20T07:55:31;97215.16;;;16.28;84.25
55066;BME280;40964;42.114;24.220;2022-11-20T07:57:57;97217.28;;;16.36;82.14
55066;BME280;40964;42.114;24.220;2022-11-20T08:00:24;97231.06;;;16.54;80.50
55066;BME280;40964;42.114;24.220;2022-11-20T08:02:50;97219.91;;;16.57;80.13
55066;BME280;40964;42.114;24.220;2022-11-20T08:05:15;97208.47;;;16.66;80.82
55066;BME280;40964;42.114;24.220;2022-11-20T08:07:42;97222.00;;;16.75;79.97
55066;BME280;40964;42.114;24.220;2022-11-20T08:10:11;97209.78;;;16.84;79.64
55066;BME280;40964;42.114;24.220;2022-11-20T08:12:43;97223.00;;;16.99;79.60
55066;BME280;40964;42.114;24.220;2022-11-20T08:15:28;97224.84;;;17.04;78.07
55066;BME280;40964;42.114;24.220;2022-11-20T08:18:06;97200.97;;;16.99;77.99
55066;BME280;40964;42.114;24.220;2022-11-20T08:20:32;97206.28;;;16.99;77.82
55066;BME280;40964;42.114;24.220;2022-11-20T08:22:59;97204.38;;;17.05;78.07
55066;BME280;40964;42.114;24.220;2022-11-20T08:25:27;97204.59;;;17.18;79.34
55066;BME280;40964;42.114;24.220;2022-11-20T08:27:52;97212.97;;;17.41;78.43
55066;BME280;40964;42.114;24.220;2022-11-20T08:30:18;97193.00;;;17.48;77.79
55066;BME280;40964;42.114;24.220;2022-11-20T08:32:43;97201.16;;;17.62;78.50
55066;BME280;40964;42.114;24.220;2022-11-20T08:35:09;97204.06;;;17.66;77.06
55066;BME280;40964;42.114;24.220;2022-11-20T08:37:34;97207.53;;;17.61;77.79
55066;BME280;40964;42.114;24.220;2022-11-20T08:40:00;97193.00;;;17.48;77.50
55066;BME280;40964;42.114;24.220;2022-11-20T08:42:25;97209.66;;;17.64;77.44
55066;BME280;40964;42.114;24.220;2022-11-20T08:44:51;97205.56;;;17.82;77.48
55066;BME280;40964;42.114;24.220;2022-11-20T08:47:16;97205.44;;;17.97;78.05
55066;BME280;40964;42.114;24.220;2022-11-20T08:49:41;97193.75;;;17.98;75.86
55066;BME280;40964;42.114;24.220;2022-11-20T08:52:07;97200.50;;;18.14;75.51
55066;BME280;40964;42.114;24.220;2022-11-20T08:54:32;97210.53;;;18.28;75.04
55066;BME280;40964;42.114;24.220;2022-11-20T08:56:58;97197.44;;;18.31;74.85
55066;BME280;40964;42.114;24.220;2022-11-20T08:59:23;97193.50;;;18.24;74.57
55066;BME280;40964;42.114;24.220;2022-11-20T09:01:49;97181.75;;;18.30;74.15
55066;BME280;40964;42.114;24.220;2022-11-20T09:04:15;97172.97;;;18.29;75.17
55066;BME280;40964;42.114;24.220;2022-11-20T09:06:40;97178.91;;;18.21;73.49
55066;BME280;40964;42.114;24.220;2022-11-20T09:09:06;97173.59;;;18.21;73.57
55066;BME280;40964;42.114;24.220;2022-11-20T09:11:32;97174.56;;;18.30;75.08
55066;BME280;40964;42.114;24.220;2022-11-20T09:13:57;97171.09;;;18.30;74.26
55066;BME280;40964;42.114;24.220;2022-11-20T09:16:22;97163.91;;;18.30;74.65
55066;BME280;40964;42.114;24.220;2022-11-20T09:18:49;97154.47;;;18.43;74.27
55066;BME280;40964;42.114;24.220;2022-11-20T09:21:15;97159.56;;;18.39;75.64
55066;BME280;40964;42.114;24.220;2022-11-20T09:23:41;97152.03;;;18.47;74.60
55066;BME280;40964;42.114;24.220;2022-11-20T09:26:11;97146.44;;;18.48;74.59
55066;BME280;40964;42.114;24.220;2022-11-20T09:28:37;97168.66;;;18.62;74.59
55066;BME280;40964;42.114;24.220;2022-11-20T09:31:07;97159.88;;;18.62;74.06
55066;BME280;40964;42.114;24.220;2022-11-20T09:33:33;97144.25;;;18.50;74.75
55066;BME280;40964;42.114;24.220;2022-11-20T09:35:59;97150.97;;;18.48;73.53
55066;BME280;40964;42.114;24.220;2022-11-20T09:38:25;97150.84;;;18.58;73.50
55066;BME280;40964;42.114;24.220;2022-11-20T09:41:01;97159.34;;;18.60;74.16
55066;BME280;40964;42.114;24.220;2022-11-20T09:43:37;97147.25;;;18.73;76.12
55066;BME280;40964;42.114;24.220;2022-11-20T09:46:28;97148.72;;;18.84;74.97
55066;BME280;40964;42.114;24.220;2022-11-20T09:49:53;97140.72;;;18.84;74.56
55066;BME280;40964;42.114;24.220;2022-11-20T09:52:01;97151.53;;;18.92;75.25
55066;BME280;40964;42.114;24.220;2022-11-20T09:54:34;97148.81;;;18.97;75.57
55066;BME280;40964;42.114;24.220;2022-11-20T09:57:22;97126.47;;;18.93;74.09
55066;BME280;40964;42.114;24.220;2022-11-20T09:59:57;97130.00;;;18.89;74.16
55066;BME280;40964;42.114;24.220;2022-11-20T10:05:06;97154.97;;;19.36;75.10
55066;BME280;40964;42.114;24.220;2022-11-20T10:07:41;97170.53;;;19.47;73.99
55066;BME280;40964;42.114;24.220;2022-11-20T10:10:40;97136.81;;;19.56;72.56
55066;BME280;40964;42.114;24.220;2022-11-20T10:16:01;97113.72;;;19.47;70.49
55066;BME280;40964;42.114;24.220;2022-11-20T10:18:36;97117.06;;;19.58;70.97
55066;BME280;40964;42.114;24.220;2022-11-20T10:29:32;97129.88;;;20.07;67.71
55066;BME280;40964;42.114;24.220;2022-11-20T10:32:04;97104.56;;;20.04;67.29
55066;BME280;40964;42.114;24.220;2022-11-20T10:37:16;97122.47;;;20.18;66.02
55066;BME280;40964;42.114;24.220;2022-11-20T10:39:50;97109.97;;;20.46;66.83
55066;BME280;40964;42.114;24.220;2022-11-20T10:42:28;97099.47;;;20.63;65.20
55066;BME280;40964;42.114;24.220;2022-11-20T10:45:10;97096.88;;;20.58;63.66
55066;BME280;40964;42.114;24.220;2022-11-20T10:47:39;97111.84;;;20.73;65.95
55066;BME280;40964;42.114;24.220;2022-11-20T10:50:08;97114.19;;;20.88;65.39
55066;BME280;40964;42.114;24.220;2022-11-20T10:53:05;97100.34;;;20.86;61.61
55066;BME280;40964;42.114;24.220;2022-11-20T11:01:22;97077.75;;;20.92;60.19
55066;BME280;40964;42.114;24.220;2022-11-20T11:03:49;97088.81;;;20.99;63.13
55066;BME280;40964;42.114;24.220;2022-11-20T11:06:23;97079.31;;;21.07;63.43
55066;BME280;40964;42.114;24.220;2022-11-20T11:08:56;97084.66;;;21.07;60.70
55066;BME280;40964;42.114;24.220;2022-11-20T11:11:27;97075.16;;;21.01;59.31
55066;BME280;40964;42.114;24.220;2022-11-20T11:14:07;97072.00;;;20.98;59.21
55066;BME280;40964;42.114;24.220;2022-11-20T11:16:32;97076.53;;;21.12;58.38
55066;BME280;40964;42.114;24.220;2022-11-20T11:19:14;97073.88;;;20.98;57.65
55066;BME280;40964;42.114;24.220;2022-11-20T11:21:47;97065.59;;;20.86;59.73
55066;BME280;40964;42.114;24.220;2022-11-20T11:24:23;97060.75;;;20.88;59.59
55066;BME280;40964;42.114;24.220;2022-11-20T11:27:03;97057.16;;;20.92;61.05
55066;BME280;40964;42.114;24.220;2022-11-20T11:29:30;97052.00;;;20.96;59.37
55066;BME280;40964;42.114;24.220;2022-11-20T11:32:07;97058.72;;;21.07;63.15
55066;BME280;40964;42.114;24.220;2022-11-20T11:34:33;97049.91;;;21.07;56.16
55066;BME280;40964;42.114;24.220;2022-11-20T11:37:00;97048.09;;;21.16;56.34
55066;BME280;40964;42.114;24.220;2022-11-20T11:39:30;97058.75;;;21.30;58.37
55066;BME280;40964;42.114;24.220;2022-11-20T11:41:57;97052.19;;;21.36;58.30
55066;BME280;40964;42.114;24.220;2022-11-20T11:44:34;97055.84;;;21.40;56.31
55066;BME280;40964;42.114;24.220;2022-11-20T11:47:26;97045.16;;;21.40;53.81
55066;BME280;40964;42.114;24.220;2022-11-20T11:50:07;97054.56;;;21.37;51.22
55066;BME280;40964;42.114;24.220;2022-11-20T12:00:54;97045.63;;;21.42;50.40
55066;BME280;40964;42.114;24.220;2022-11-20T12:03:27;97038.50;;;21.37;49.66
55066;BME280;40964;42.114;24.220;2022-11-20T12:06:05;97040.69;;;21.35;48.92
55066;BME280;40964;42.114;24.220;2022-11-20T12:11:24;97063.34;;;21.15;57.32
55066;BME280;40964;42.114;24.220;2022-11-20T12:14:24;97060.84;;;21.19;57.46
55066;BME280;40964;42.114;24.220;2022-11-20T12:16:53;97059.13;;;21.01;57.42
55066;BME280;40964;42.114;24.220;2022-11-20T12:19:21;97054.31;;;20.89;57.55
55066;BME280;40964;42.114;24.220;2022-11-20T12:22:02;97047.06;;;20.89;57.15
55066;BME280;40964;42.114;24.220;2022-11-20T12:25:01;97057.53;;;21.00;56.78
55066;BME280;40964;42.114;24.220;2022-11-20T12:30:20;97057.06;;;20.84;56.35
55066;BME280;40964;42.114;24.220;2022-11-20T12:53:39;97070.28;;;21.03;49.96
55066;BME280;40964;42.114;24.220;2022-11-20T12:59:16;97080.72;;;21.04;51.22
55066;BME280;40964;42.114;24.220;2022-11-20T13:01:50;97088.13;;;20.93;50.04
55066;BME280;40964;42.114;24.220;2022-11-20T13:06:50;97107.66;;;20.66;55.47
55066;BME280;40964;42.114;24.220;2022-11-20T13:09:18;97129.38;;;20.51;56.64
55066;BME280;40964;42.114;24.220;2022-11-20T13:12:16;97153.09;;;20.06;57.92
55066;BME280;40964;42.114;24.220;2022-11-20T13:14:52;97170.47;;;19.71;63.96
55066;BME280;40964;42.114;24.220;2022-11-20T13:19:55;97194.25;;;18.87;68.67
55066;BME280;40964;42.114;24.220;2022-11-20T13:22:42;97197.09;;;18.43;69.33
55066;BME280;40964;42.114;24.220;2022-11-20T13:25:25;97205.84;;;18.14;73.03
55066;BME280;40964;42.114;24.220;2022-11-20T13:27:52;97201.56;;;17.84;76.83
55066;BME280;40964;42.114;24.220;2022-11-20T13:35:25;97200.91;;;17.09;76.68
55066;BME280;40964;42.114;24.220;2022-11-20T13:38:04;97186.97;;;16.73;78.32
55066;BME280;40964;42.114;24.220;2022-11-20T13:40:30;97174.78;;;16.52;82.10
55066;BME280;40964;42.114;24.220;2022-11-20T13:43:08;97171.38;;;16.31;79.82
55066;BME280;40964;42.114;24.220;2022-11-20T13:45:36;97171.94;;;16.17;84.25
55066;BME280;40964;42.114;24.220;2022-11-20T13:48:04;97168.22;;;16.03;85.68
55066;BME280;40964;42.114;24.220;2022-11-20T13:55:53;97078.84;;;15.53;88.77
55066;BME280;40964;42.114;24.220;2022-11-20T14:01:23;97049.72;;;15.48;91.04
55066;BME280;40964;42.114;24.220;2022-11-20T14:03:49;97068.28;;;15.48;90.71
55066;BME280;40964;42.114;24.220;2022-11-20T14:06:27;97081.25;;;15.39;89.97
55066;BME280;40964;42.114;24.220;2022-11-20T14:08:54;97087.31;;;15.34;89.10
55066;BME280;40964;42.114;24.220;2022-11-20T14:11:23;97108.00;;;15.32;86.86
55066;BME280;40964;42.114;24.220;2022-11-20T14:14:01;97113.28;;;15.27;85.23
55066;BME280;40964;42.114;24.220;2022-11-20T14:16:33;97127.06;;;15.34;87.10
55066;BME280;40964;42.114;24.220;2022-11-20T14:21:48;97138.75;;;15.39;86.74
55066;BME280;40964;42.114;24.220;2022-11-20T14:24:21;97131.59;;;15.39;87.10
55066;BME280;40964;42.114;24.220;2022-11-20T14:26:48;97129.44;;;15.36;85.23
55066;BME280;40964;42.114;24.220;2022-11-20T14:29:16;97125.47;;;15.44;87.50
55066;BME280;40964;42.114;24.220;2022-11-20T14:31:44;97120.19;;;15.33;88.11
55066;BME280;40964;42.114;24.220;2022-11-20T14:34:15;97120.19;;;15.33;88.96